INFORMAÇÕES METEOROLÓGICAS
METAR FOR SBIP
ADDS - METARS form results

(1957 UTC 09 December 2018)
Data provider http://aviationweather.gov/metar/data/
 
METAR text: SBIP 091900Z 35006KT 9999 FEW025 BKN040 OVC080 23/17 Q1021
Conditions at: SBIP (USIMINAS/PARAISO, BR) observed 1900 UTC 09 December 2018
Temperature: 23.0°C (73°F)
Dewpoint: 17.0°C (63°F) [RH = 69%]
Pressure (altimeter): 30.15 inches Hg (1021.0 mb)
Winds: from the N (350 degrees) at 7 MPH (6 knots; 3.1 m/s)
Visibility: 6 or more miles (10+ km)
Ceiling: 4000 feet AGL
Clouds: few clouds at 2500 feet AGL
broken clouds at 4000 feet AGL
overcast cloud deck at 8000 feet AGL
Weather: no significant weather observed at this time

 MAPA DO AEROPORTO

 INFORMAÇÕES DA PISTA
Pista 5 Tamanho da pista 6575 ft Largura da pista 148 ft
Elevação da pista 0 ft Ranhura da pista 0 ft Proa da pista 0
Pista 23 Tamanho da pista 6575 ft Largura da pista 148 ft
Elevação da pista 0 ft Ranhura da pista 0 ft Proa da pista 0

 FREQUÊNCIAS DO AEROPORTO
Tipo AFIS Nome RDO Frequência 130 MHZ

 AUXÍLIOS DE NAVEGAÇÃO PRÓXIMOS AO AEROPORTO
Tipo NDB Nome Usiminas Frequência 162 KHZ





Powered by Virtual Airlines Manager [v2.6.2]